createdAt,value
2023-02-17T00:01:10.892Z,101857.81
2023-02-17T00:03:37.640Z,101853.19
2023-02-17T00:06:09.789Z,101858.59
2023-02-17T00:08:36.945Z,101864.00
2023-02-17T00:11:03.770Z,101859.56
2023-02-17T00:13:30.308Z,101856.84
2023-02-17T00:15:57.105Z,101856.84
2023-02-17T00:18:23.986Z,101846.03
2023-02-17T00:20:50.931Z,101849.72
2023-02-17T00:23:18.083Z,101851.44
2023-02-17T00:25:44.822Z,101846.03
2023-02-17T00:28:11.454Z,101852.41
2023-02-17T00:30:39.364Z,101846.03
2023-02-17T00:33:06.474Z,101850.38
2023-02-17T00:35:33.313Z,101838.69
2023-02-17T00:38:00.064Z,101840.41
2023-02-17T00:40:26.707Z,101837.72
2023-02-17T00:42:55.010Z,101832.19
2023-02-17T00:45:21.906Z,101832.94
2023-02-17T00:47:48.861Z,101833.81
2023-02-17T00:50:21.428Z,101824.72
2023-02-17T00:52:47.968Z,101823.66
2023-02-17T00:55:14.499Z,101821.06
2023-02-17T00:57:41.133Z,101821.06
2023-02-17T01:00:09.307Z,101815.66
2023-02-17T01:02:35.949Z,101821.91
2023-02-17T01:05:04.145Z,101820.06
2023-02-17T01:07:30.648Z,101818.25
2023-02-17T01:09:57.351Z,101820.94
2023-02-17T01:12:23.957Z,101823.66
2023-02-17T01:14:51.687Z,101819.09
2023-02-17T01:17:18.303Z,101820.94
2023-02-17T01:19:44.805Z,101824.50
2023-02-17T01:22:11.495Z,101809.16
2023-02-17T01:24:39.154Z,101811.00
2023-02-17T01:27:05.895Z,101811.00
2023-02-17T01:29:32.633Z,101812.72
2023-02-17T01:31:59.246Z,101807.31
2023-02-17T01:34:27.236Z,101819.84
2023-02-17T01:36:53.869Z,101809.03
2023-02-17T01:39:20.511Z,101805.59
2023-02-17T01:41:47.359Z,101801.91
2023-02-17T01:44:20.433Z,101798.22
2023-02-17T01:46:50.825Z,101799.19
2023-02-17T01:49:31.115Z,101800.94
2023-02-17T01:52:18.437Z,101800.94
2023-02-17T01:55:07.761Z,101806.44
2023-02-17T01:57:37.917Z,101802.88
2023-02-17T02:00:08.347Z,101802.78
2023-02-17T02:02:42.030Z,101806.34
2023-02-17T02:05:10.124Z,101805.47
2023-02-17T02:07:41.565Z,101809.03
2023-02-17T02:10:09.842Z,101819.84
2023-02-17T02:12:38.942Z,101810.00
2023-02-17T02:15:09.778Z,101801.91
2023-02-17T02:17:49.417Z,101800.94
2023-02-17T02:20:37.666Z,101796.38
2023-02-17T02:23:25.388Z,101801.03
2023-02-17T02:26:15.885Z,101792.19
2023-02-17T02:29:25.118Z,101782.56
2023-02-17T02:32:01.990Z,101780.72
2023-02-17T02:34:54.437Z,101772.84
2023-02-17T02:37:36.741Z,101776.53
2023-02-17T02:40:07.581Z,101767.66
2023-02-17T02:42:36.160Z,101764.09
2023-02-17T02:45:07.521Z,101752.41
2023-02-17T02:47:45.204Z,101752.53
2023-02-17T02:50:19.318Z,101747.13
2023-02-17T02:52:56.909Z,101751.66
2023-02-17T02:55:44.329Z,101746.34
2023-02-17T02:58:36.264Z,101731.97
2023-02-17T03:01:21.852Z,101733.81
2023-02-17T03:04:31.852Z,101717.59
2023-02-17T03:07:09.386Z,101724.84
2023-02-17T03:09:36.637Z,101715.97
2023-02-17T03:12:05.016Z,101713.50
2023-02-17T03:14:37.583Z,101731.66
2023-02-17T03:17:04.325Z,101730.78
2023-02-17T03:19:31.084Z,101729.94
2023-02-17T03:22:08.012Z,101732.75
2023-02-17T03:24:35.293Z,101735.34
2023-02-17T03:27:02.124Z,101730.91
2023-02-17T03:29:28.773Z,101728.22
2023-02-17T03:31:55.982Z,101725.38
2023-02-17T03:34:22.556Z,101727.97
2023-02-17T03:36:49.188Z,101740.75
2023-02-17T03:39:16.652Z,101727.22
2023-02-17T03:41:43.311Z,101730.91
2023-02-17T03:44:10.032Z,101731.03
2023-02-17T03:46:39.936Z,101734.59
2023-02-17T03:49:06.471Z,101732.84
2023-02-17T03:51:33.113Z,101721.31
2023-02-17T03:53:59.640Z,101722.06
2023-02-17T03:56:27.504Z,101720.00
2023-02-17T03:58:57.214Z,101725.38
2023-02-17T04:01:24.562Z,101713.59
2023-02-17T04:03:51.674Z,101710.78
2023-02-17T04:06:18.357Z,101708.09
2023-02-17T04:08:44.924Z,101715.34
2023-02-17T04:11:11.728Z,101718.03
2023-02-17T04:13:38.461Z,101727.97
2023-02-17T04:16:06.898Z,101727.13
2023-02-17T04:18:34.408Z,101721.72
2023-02-17T04:21:01.340Z,101716.31
2023-02-17T04:23:28.285Z,101718.03
2023-02-17T04:25:55.024Z,101720.75
2023-02-17T04:28:22.584Z,101706.38
2023-02-17T04:30:51.322Z,101706.47
2023-02-17T04:33:18.418Z,101712.75
2023-02-17T04:35:47.627Z,101718.16
2023-02-17T04:38:14.255Z,101718.16
2023-02-17T04:40:42.739Z,101715.44
2023-02-17T04:43:09.685Z,101722.69
2023-02-17T04:45:37.677Z,101723.56
2023-02-17T04:48:04.378Z,101723.56
2023-02-17T04:50:31.019Z,101722.69
2023-02-17T04:52:57.774Z,101712.63
2023-02-17T04:55:24.386Z,101712.63
2023-02-17T04:57:51.025Z,101700.97
2023-02-17T05:00:17.868Z,101706.38
2023-02-17T05:02:44.503Z,101701.94
2023-02-17T05:05:15.303Z,101701.94
2023-02-17T05:07:43.111Z,101693.81
2023-02-17T05:10:09.953Z,101700.09
2023-02-17T05:12:36.678Z,101683.03
2023-02-17T05:15:04.548Z,101690.16
2023-02-17T05:17:31.182Z,101694.59
2023-02-17T05:19:58.234Z,101694.59
2023-02-17T05:22:25.169Z,101695.44
2023-02-17T05:24:51.810Z,101692.75
2023-02-17T05:27:19.057Z,101698.16
2023-02-17T05:29:46.102Z,101686.47
2023-02-17T05:32:13.251Z,101692.75
2023-02-17T05:34:40.001Z,101709.94
2023-02-17T05:37:06.532Z,101708.97
2023-02-17T05:39:33.065Z,101700.97
2023-02-17T05:41:59.598Z,101693.81
2023-02-17T05:44:26.333Z,101704.63
2023-02-17T05:46:53.025Z,101687.56
2023-02-17T05:49:19.606Z,101710.03
2023-02-17T05:51:46.246Z,101709.19
2023-02-17T05:54:13.805Z,101703.66
2023-02-17T05:56:40.551Z,101704.63
2023-02-17T05:59:07.159Z,101713.72
2023-02-17T06:01:34.426Z,101719.13
2023-02-17T06:04:02.192Z,101708.31
2023-02-17T06:06:28.979Z,101714.59
2023-02-17T06:08:55.577Z,101715.44
2023-02-17T06:11:22.205Z,101709.19
2023-02-17T06:13:48.739Z,101700.22
2023-02-17T06:16:15.305Z,101679.56
2023-02-17T06:18:41.919Z,101678.72
2023-02-17T06:21:08.459Z,101700.22
2023-02-17T06:23:50.136Z,101693.19
2023-02-17T06:26:18.551Z,101686.81
2023-02-17T06:28:45.453Z,101706.69
2023-02-17T06:31:12.207Z,101697.72
2023-02-17T06:33:38.826Z,101694.16
2023-02-17T06:36:06.113Z,101689.75
2023-02-17T06:38:32.829Z,101680.66
2023-02-17T06:40:59.757Z,101684.22
2023-02-17T06:43:26.300Z,101677.09
2023-02-17T06:45:52.878Z,101691.47
2023-02-17T06:48:19.465Z,101694.16
2023-02-17T06:50:46.101Z,101684.22
2023-02-17T06:53:12.632Z,101692.31
2023-02-17T06:55:39.647Z,101696.75
2023-02-17T06:58:07.356Z,101700.44
2023-02-17T07:00:34.079Z,101692.22
2023-02-17T07:03:00.944Z,101690.25
2023-02-17T07:05:27.663Z,101689.28
2023-02-17T07:07:57.676Z,101695.44
2023-02-17T07:10:24.317Z,101691.66
2023-02-17T07:12:51.780Z,101700.63
2023-02-17T07:15:18.619Z,101690.69
2023-02-17T07:17:45.249Z,101689.81
2023-02-17T07:20:12.719Z,101687.88
2023-02-17T07:22:39.548Z,101693.25
2023-02-17T07:25:06.692Z,101689.59
2023-02-17T07:27:36.609Z,101688.72
2023-02-17T07:30:04.516Z,101689.50
2023-02-17T07:32:31.111Z,101679.56
2023-02-17T07:34:57.755Z,101681.16
2023-02-17T07:37:24.389Z,101676.63
2023-02-17T07:39:52.472Z,101688.06
2023-02-17T07:42:19.085Z,101688.94
2023-02-17T07:44:49.818Z,101675.44
2023-02-17T07:47:16.558Z,101682.66
2023-02-17T07:49:43.210Z,101678.00
2023-02-17T07:52:09.829Z,101670.88
2023-02-17T07:54:36.581Z,101667.19
2023-02-17T07:57:03.240Z,101668.94
2023-02-17T07:59:29.953Z,101666.09
2023-02-17T08:01:56.708Z,101662.31
2023-02-17T08:04:23.365Z,101666.63
2023-02-17T08:06:51.191Z,101667.25
2023-02-17T08:09:36.458Z,101658.91
2023-02-17T08:12:35.245Z,101663.13
2023-02-17T08:15:02.204Z,101678.25
2023-02-17T08:17:29.346Z,101689.81
2023-02-17T08:19:56.180Z,101684.28
2023-02-17T08:22:22.814Z,101678.63
2023-02-17T08:24:49.475Z,101674.97
2023-02-17T08:27:16.848Z,101670.28
2023-02-17T08:29:44.157Z,101674.59
2023-02-17T08:32:11.189Z,101692.47
2023-02-17T08:34:37.941Z,101691.38
2023-02-17T08:37:06.548Z,101691.16
2023-02-17T08:39:34.069Z,101693.63
2023-02-17T08:42:01.282Z,101694.25
2023-02-17T08:44:27.871Z,101684.19
2023-02-17T08:46:54.924Z,101693.78
2023-02-17T08:49:24.526Z,101688.25
2023-02-17T08:51:52.298Z,101697.00
2023-02-17T08:54:19.030Z,101695.78
2023-02-17T08:56:45.769Z,101705.38
2023-02-17T08:59:12.925Z,101701.47
2023-02-17T09:01:40.225Z,101698.53
2023-02-17T09:04:08.552Z,101706.28
2023-02-17T09:06:42.470Z,101711.69
2023-02-17T09:09:12.014Z,101721.44
2023-02-17T09:11:38.818Z,101712.19
2023-02-17T09:14:06.995Z,101724.88
2023-02-17T09:16:33.831Z,101729.31
2023-02-17T09:19:00.444Z,101738.28
2023-02-17T09:21:27.078Z,101739.16
2023-02-17T09:23:54.029Z,101740.03
2023-02-17T09:26:21.128Z,101744.34
2023-02-17T09:28:48.015Z,101739.66
2023-02-17T09:31:20.263Z,101744.97
2023-02-17T09:33:48.368Z,101748.41
2023-02-17T09:36:18.565Z,101753.69
2023-02-17T09:38:45.207Z,101749.91
2023-02-17T09:41:27.013Z,101755.94
2023-02-17T09:43:55.176Z,101745.75
2023-02-17T09:47:00.511Z,101753.69
2023-02-17T09:49:35.062Z,101756.88
2023-02-17T09:52:15.578Z,101756.66
2023-02-17T09:55:04.377Z,101761.94
2023-02-17T09:57:37.740Z,101761.94
2023-02-17T10:00:12.642Z,101766.38
2023-02-17T10:03:02.059Z,101760.97
2023-02-17T10:05:36.474Z,101759.84
2023-02-17T10:08:09.474Z,101768.84
2023-02-17T10:10:46.876Z,101767.88
2023-02-17T10:13:18.027Z,101755.94
2023-02-17T10:15:49.295Z,101750.38
2023-02-17T10:19:05.634Z,101742.03
2023-02-17T10:21:39.352Z,101752.38
2023-02-17T10:24:06.120Z,101757.44
2023-02-17T10:26:57.595Z,101753.63
2023-02-17T10:29:43.093Z,101751.41
2023-02-17T10:32:24.991Z,101745.63
2023-02-17T10:35:22.848Z,101741.56
2023-02-17T10:37:55.370Z,101730.34
2023-02-17T10:40:25.418Z,101736.38
2023-02-17T10:42:57.687Z,101734.16
2023-02-17T10:46:12.144Z,101746.34
2023-02-17T10:48:47.085Z,101753.91
2023-02-17T10:51:16.783Z,101754.63
2023-02-17T10:53:49.284Z,101760.06
2023-02-17T10:56:28.897Z,101772.75
2023-02-17T10:59:03.019Z,101777.44
2023-02-17T11:01:29.855Z,101772.13
2023-02-17T11:04:06.300Z,101778.50
2023-02-17T11:06:37.983Z,101774.06
2023-02-17T11:09:09.237Z,101760.66
2023-02-17T11:11:36.890Z,101751.66
2023-02-17T11:14:14.482Z,101762.38
2023-02-17T11:16:54.729Z,101772.22
2023-02-17T11:19:36.215Z,101774.06
2023-02-17T11:22:06.228Z,101766.94
2023-02-17T11:24:34.913Z,101750.91
2023-02-17T11:27:10.559Z,101734.78
2023-02-17T11:29:37.664Z,101731.06
2023-02-17T11:32:08.994Z,101727.38
2023-02-17T11:34:39.556Z,101724.53
2023-02-17T11:37:12.102Z,101712.72
2023-02-17T11:39:41.464Z,101709.00
2023-02-17T11:42:28.381Z,101719.84
2023-02-17T11:44:57.570Z,101738.63
2023-02-17T11:47:43.968Z,101737.63
2023-02-17T11:50:40.094Z,101739.97
2023-02-17T11:53:28.637Z,101742.56
2023-02-17T11:56:33.379Z,101743.28
2023-02-17T11:59:14.896Z,101736.88
2023-02-17T12:01:44.566Z,101745.88
2023-02-17T12:04:29.744Z,101745.63
2023-02-17T12:07:05.176Z,101749.94
2023-02-17T12:09:48.404Z,101763.38
2023-02-17T12:12:40.948Z,101760.78
2023-02-17T12:15:32.583Z,101748.09
2023-02-17T12:18:20.507Z,101743.91
2023-02-17T12:21:05.569Z,101749.44
2023-02-17T12:23:45.657Z,101762.28
2023-02-17T12:26:37.755Z,101765.97
2023-02-17T12:29:04.391Z,101768.56
2023-02-17T12:31:55.538Z,101773.13
2023-02-17T12:34:55.723Z,101772.25
2023-02-17T12:37:28.915Z,101777.66
2023-02-17T12:40:03.860Z,101777.66
2023-02-17T12:42:35.706Z,101782.22
2023-02-17T12:45:18.730Z,101781.38
2023-02-17T12:47:54.694Z,101780.38
2023-02-17T12:50:27.446Z,101784.69
2023-02-17T12:52:57.579Z,101781.97
2023-02-17T12:55:50.639Z,101783.97
2023-02-17T12:58:28.443Z,101789.25
2023-02-17T13:01:06.164Z,101784.09
2023-02-17T13:03:35.641Z,101787.03
2023-02-17T13:06:11.387Z,101792.59
2023-02-17T13:08:44.480Z,101798.25
2023-02-17T13:11:13.983Z,101800.09
2023-02-17T13:13:40.717Z,101799.34
2023-02-17T13:16:13.659Z,101810.19
2023-02-17T13:18:43.435Z,101813.88
2023-02-17T13:21:31.873Z,101821.16
2023-02-17T13:24:07.610Z,101831.00
2023-02-17T13:26:38.967Z,101822.88
2023-02-17T13:29:24.130Z,101833.84
2023-02-17T13:31:50.845Z,101840.00
2023-02-17T13:34:46.179Z,101836.53
2023-02-17T13:37:37.092Z,101849.34
2023-02-17T13:40:25.427Z,101858.34
2023-02-17T13:42:54.415Z,101847.50
2023-02-17T13:45:28.505Z,101848.50
2023-02-17T13:48:00.795Z,101850.47
2023-02-17T13:50:36.245Z,101850.59
2023-02-17T13:53:21.191Z,101858.72
2023-02-17T13:55:48.033Z,101847.00
2023-02-17T13:58:14.575Z,101858.72
2023-02-17T14:00:43.893Z,101867.84
2023-02-17T14:03:28.848Z,101862.66
2023-02-17T14:05:57.951Z,101857.22
2023-02-17T14:08:39.434Z,101869.31
2023-02-17T14:11:14.872Z,101869.41
2023-02-17T14:13:47.591Z,101870.53
2023-02-17T14:16:34.962Z,101888.75
2023-02-17T14:19:09.247Z,101885.06
2023-02-17T14:21:38.286Z,101879.63
2023-02-17T14:24:05.423Z,101891.34
2023-02-17T14:26:39.737Z,101875.09
2023-02-17T14:29:09.137Z,101870.41
2023-02-17T14:31:39.940Z,101872.25
2023-02-17T14:34:07.777Z,101871.16
2023-02-17T14:36:37.302Z,101864.75
2023-02-17T14:39:07.261Z,101850.22
2023-02-17T14:41:34.608Z,101842.06
2023-02-17T14:44:01.450Z,101847.25
2023-02-17T14:46:28.176Z,101845.28
2023-02-17T14:48:55.234Z,101839.63
2023-02-17T14:51:25.767Z,101856.63
2023-02-17T14:53:53.017Z,101861.06
2023-02-17T14:56:27.740Z,101867.34
2023-02-17T14:58:54.383Z,101883.63
2023-02-17T15:01:23.030Z,101890.88
2023-02-17T15:03:50.052Z,101891.88
2023-02-17T15:06:28.809Z,101883.00
2023-02-17T15:08:56.658Z,101886.56
2023-02-17T15:11:37.362Z,101879.41
2023-02-17T15:14:04.911Z,101883.00
2023-02-17T15:16:31.799Z,101891.00
2023-02-17T15:18:58.501Z,101896.53
2023-02-17T15:21:33.940Z,101883.97
2023-02-17T15:24:01.581Z,101891.00
2023-02-17T15:26:30.598Z,101882.75
2023-02-17T15:28:58.161Z,101887.56
2023-02-17T15:31:29.964Z,101890.38
2023-02-17T15:33:58.903Z,101896.78
2023-02-17T15:36:26.465Z,101888.66
2023-02-17T15:38:53.191Z,101895.06
2023-02-17T15:41:24.236Z,101903.06
2023-02-17T15:43:51.586Z,101905.66
2023-02-17T15:46:20.396Z,101891.13
2023-02-17T15:48:52.340Z,101889.16
2023-02-17T15:51:19.993Z,101891.88
2023-02-17T15:53:47.857Z,101905.31
2023-02-17T15:56:22.169Z,101907.16
2023-02-17T15:58:50.454Z,101911.72
2023-02-17T16:01:29.208Z,101913.56
2023-02-17T16:03:57.413Z,101909.84
2023-02-17T16:06:25.329Z,101915.28
2023-02-17T16:08:52.128Z,101919.72
2023-02-17T16:11:21.348Z,101920.69
2023-02-17T16:13:48.808Z,101928.94
2023-02-17T16:16:19.283Z,101924.50
2023-02-17T16:18:49.355Z,101919.22
2023-02-17T16:21:16.600Z,101935.59
2023-02-17T16:23:43.852Z,101936.69
2023-02-17T16:26:17.558Z,101947.78
2023-02-17T16:28:45.643Z,101955.03
2023-02-17T16:31:12.394Z,101960.59
2023-02-17T16:33:39.101Z,101953.44
2023-02-17T16:36:13.828Z,101953.44
2023-02-17T16:38:40.983Z,101960.81
2023-02-17T16:41:07.922Z,101967.22
2023-02-17T16:43:34.560Z,101965.50
2023-02-17T16:46:04.821Z,101974.59
2023-02-17T16:48:34.260Z,101974.72
2023-02-17T16:51:01.534Z,101976.69
2023-02-17T16:53:28.590Z,101973.13
2023-02-17T16:55:56.245Z,101975.94
2023-02-17T16:58:24.927Z,101967.94
2023-02-17T17:00:53.929Z,101990.59
2023-02-17T17:03:24.382Z,101996.97
2023-02-17T17:05:52.712Z,101996.88
2023-02-17T17:08:21.580Z,102005.88
2023-02-17T17:10:49.554Z,102004.03
2023-02-17T17:13:16.618Z,101996.75
2023-02-17T17:15:45.258Z,102000.31
2023-02-17T17:18:21.555Z,101995.88
2023-02-17T17:20:48.817Z,102004.75
2023-02-17T17:23:15.975Z,102018.44
2023-02-17T17:25:46.846Z,102022.13
2023-02-17T17:28:15.684Z,102027.66
2023-02-17T17:30:42.531Z,102034.91
2023-02-17T17:33:09.063Z,102031.34
2023-02-17T17:35:36.525Z,102039.47
2023-02-17T17:38:03.155Z,102043.06
2023-02-17T17:40:32.963Z,102028.63
2023-02-17T17:42:59.905Z,102032.22
2023-02-17T17:45:26.655Z,102031.34
2023-02-17T17:47:53.383Z,102043.06
2023-02-17T17:50:23.210Z,102046.75
2023-02-17T17:52:49.937Z,102047.72
2023-02-17T17:55:16.781Z,102052.38
2023-02-17T17:57:43.423Z,102045.25
2023-02-17T18:00:14.057Z,102047.94
2023-02-17T18:02:43.756Z,102050.66
2023-02-17T18:05:11.014Z,102062.34
2023-02-17T18:07:38.552Z,102064.09
2023-02-17T18:10:07.260Z,102072.09
2023-02-17T18:12:34.192Z,102066.69
2023-02-17T18:15:02.985Z,102070.38
2023-02-17T18:17:33.711Z,102075.91
2023-02-17T18:20:00.366Z,102076.88
2023-02-17T18:22:27.091Z,102082.41
2023-02-17T18:24:53.902Z,102084.25
2023-02-17T18:27:20.589Z,102084.25
2023-02-17T18:29:47.200Z,102095.22
2023-02-17T18:32:13.890Z,102086.34
2023-02-17T18:34:40.396Z,102092.72
2023-02-17T18:37:08.169Z,102090.03
2023-02-17T18:39:34.819Z,102099.13
2023-02-17T18:42:01.404Z,102090.13
2023-02-17T18:44:28.039Z,102092.09
2023-02-17T18:46:54.683Z,102096.66
2023-02-17T18:49:21.416Z,102103.03
2023-02-17T18:51:48.048Z,102102.19
2023-02-17T18:54:15.299Z,102103.16
2023-02-17T18:56:41.953Z,102100.56
2023-02-17T18:59:08.582Z,102106.94
2023-02-17T19:01:39.473Z,102108.78
2023-02-17T19:04:06.868Z,102122.34
2023-02-17T19:06:34.924Z,102117.03
2023-02-17T19:09:04.139Z,102121.69
2023-02-17T19:11:32.195Z,102128.09
2023-02-17T19:14:00.778Z,102123.66
2023-02-17T19:16:29.414Z,102129.19
2023-02-17T19:18:56.720Z,102120.19
2023-02-17T19:21:23.558Z,102133.72
2023-02-17T19:23:51.322Z,102124.75
2023-02-17T19:26:18.898Z,102124.75
2023-02-17T19:28:46.228Z,102121.16
2023-02-17T19:31:15.916Z,102121.28
2023-02-17T19:33:44.315Z,102126.81
2023-02-17T19:36:14.022Z,102136.78
2023-02-17T19:38:40.661Z,102129.72
2023-02-17T19:41:09.557Z,102133.41
2023-02-17T19:43:36.293Z,102137.22
2023-02-17T19:46:03.980Z,102129.34
2023-02-17T19:48:30.592Z,102124.16
2023-02-17T19:51:03.288Z,102131.41
2023-02-17T19:53:31.650Z,102116.03
2023-02-17T19:56:11.338Z,102121.66
2023-02-17T19:58:38.957Z,102112.78
2023-02-17T20:01:20.261Z,102114.84
2023-02-17T20:03:47.380Z,102126.78
2023-02-17T20:06:17.396Z,102135.09
2023-02-17T20:08:45.466Z,102138.03
2023-02-17T20:11:12.414Z,102146.38
2023-02-17T20:13:45.818Z,102148.44
2023-02-17T20:16:14.814Z,102143.13
2023-02-17T20:18:44.751Z,102147.00
2023-02-17T20:21:14.417Z,102148.97
2023-02-17T20:23:41.163Z,102157.09
2023-02-17T20:26:10.442Z,102168.00
2023-02-17T20:28:37.597Z,102175.38
2023-02-17T20:31:05.624Z,102172.78
2023-02-17T20:33:32.597Z,102180.91
2023-02-17T20:35:59.251Z,102193.44
2023-02-17T20:38:25.785Z,102184.34
2023-02-17T20:40:52.522Z,102196.06
2023-02-17T20:43:20.291Z,102190.53
2023-02-17T20:45:49.278Z,102191.19
2023-02-17T20:48:16.225Z,102188.16
2023-02-17T20:50:43.587Z,102181.56
2023-02-17T20:53:10.213Z,102184.81
2023-02-17T20:55:37.064Z,102185.56
2023-02-17T20:58:04.101Z,102181.66
2023-02-17T21:00:30.994Z,102184.91
2023-02-17T21:02:57.838Z,102190.88
2023-02-17T21:05:26.297Z,102193.22
2023-02-17T21:07:53.311Z,102197.44
2023-02-17T21:10:27.428Z,102200.69
2023-02-17T21:12:54.906Z,102193.00
2023-02-17T21:15:22.336Z,102202.84
2023-02-17T21:17:49.578Z,102201.75
2023-02-17T21:20:19.402Z,102209.66
2023-02-17T21:22:46.447Z,102214.00
2023-02-17T21:25:13.386Z,102212.91
2023-02-17T21:27:40.022Z,102208.13
2023-02-17T21:30:08.545Z,102214.22
2023-02-17T21:32:35.307Z,102209.53
2023-02-17T21:35:02.091Z,102208.78
2023-02-17T21:37:28.922Z,102209.88
2023-02-17T21:39:55.594Z,102207.28
2023-02-17T21:42:44.639Z,102205.53
2023-02-17T21:45:12.483Z,102201.97
2023-02-17T21:47:39.138Z,102207.28
2023-02-17T21:50:06.488Z,102209.13
2023-02-17T21:52:33.047Z,102197.53
2023-02-17T21:55:01.156Z,102197.97
2023-02-17T21:57:27.815Z,102198.06
2023-02-17T21:59:54.352Z,102198.06
2023-02-17T22:02:20.999Z,102195.25
2023-02-17T22:04:47.620Z,102194.50
2023-02-17T22:07:14.257Z,102189.31
2023-02-17T22:09:40.790Z,102186.72
2023-02-17T22:12:07.533Z,102178.81
2023-02-17T22:14:34.167Z,102176.97
2023-02-17T22:17:01.116Z,102188.56
2023-02-17T22:19:31.285Z,102185.09
2023-02-17T22:21:58.193Z,102193.00
2023-02-17T22:24:27.432Z,102194.84
2023-02-17T22:26:54.514Z,102185.84
2023-02-17T22:29:21.054Z,102193.22
2023-02-17T22:31:50.459Z,102185.19
2023-02-17T22:34:17.300Z,102188.88
2023-02-17T22:36:44.054Z,102184.31
2023-02-17T22:39:10.669Z,102180.88
2023-02-17T22:41:38.779Z,102182.59
2023-02-17T22:44:05.546Z,102182.59
2023-02-17T22:46:32.280Z,102179.13
2023-02-17T22:48:59.480Z,102185.63
2023-02-17T22:51:29.485Z,102187.59
2023-02-17T22:53:58.406Z,102192.13
2023-02-17T22:56:25.221Z,102198.53
2023-02-17T22:58:55.952Z,102188.75
2023-02-17T23:01:23.514Z,102176.28
2023-02-17T23:03:54.450Z,102178.88
2023-02-17T23:06:29.632Z,102181.69
2023-02-17T23:08:57.038Z,102176.38
2023-02-17T23:11:45.787Z,102172.91
2023-02-17T23:14:14.074Z,102171.38
2023-02-17T23:16:41.203Z,102174.19
2023-02-17T23:19:09.719Z,102164.34
2023-02-17T23:21:37.154Z,102177.78
2023-02-17T23:24:04.196Z,102170.41
2023-02-17T23:26:30.728Z,102176.69
2023-02-17T23:28:57.344Z,102170.31
2023-02-17T23:31:23.999Z,102170.19
2023-02-17T23:33:50.742Z,102146.78
2023-02-17T23:36:17.496Z,102155.03
2023-02-17T23:38:44.014Z,102155.03
2023-02-17T23:41:10.961Z,102154.91
2023-02-17T23:43:37.598Z,102151.25
2023-02-17T23:46:04.462Z,102158.50
2023-02-17T23:48:31.076Z,102139.66
2023-02-17T23:51:03.855Z,102145.19
2023-02-17T23:53:31.618Z,102136.19
2023-02-17T23:56:11.157Z,102134.56
2023-02-17T23:58:37.799Z,102139.13
